Time;durP1;ratioP1;P1;durP2;ratioP2;P2;SDS_P1;SDS_P2;PMS_P1;PMS_P2;Temp;Humidity;BMP_temperature;BMP_pressure;BME280_temperature;BME280_humidity;BME280_pressure;Samples;Min_cycle;Max_cycle;Signal;HPM_P1;HPM_P2
2024/02/29 00:01:57;;;;;;;12.68;5.40;;;;;;;;;;4894635;29;20025;-79
2024/02/29 00:04:24;;;;;;;6.43;5.07;;;;;;;;;;4894414;29;20072;-79
2024/02/29 00:06:50;;;;;;;14.48;5.72;;;;;;;;;;4878569;29;20037;-78
2024/02/29 00:09:16;;;;;;;6.50;5.00;;;;;;;;;;4878247;29;20071;-78
2024/02/29 00:11:43;;;;;;;13.30;5.28;;;;;;;;;;4871148;29;20041;-77
2024/02/29 00:14:10;;;;;;;12.15;6.38;;;;;;;;;;4898705;29;20053;-78
2024/02/29 00:16:38;;;;;;;7.00;5.88;;;;;;;;;;4888539;29;20041;-78
2024/02/29 00:19:04;;;;;;;14.93;5.82;;;;;;;;;;4894620;29;20057;-78
2024/02/29 00:21:33;;;;;;;12.07;5.80;;;;;;;;;;4897004;29;20028;-78
2024/02/29 00:24:00;;;;;;;13.07;6.65;;;;;;;;;;4886559;29;20192;-77
2024/02/29 00:26:26;;;;;;;6.93;4.85;;;;;;;;;;4903845;29;20040;-78
2024/02/29 00:28:52;;;;;;;12.48;5.15;;;;;;;;;;4900081;29;20104;-78
2024/02/29 00:31:18;;;;;;;8.93;3.45;;;;;;;;;;4899185;29;20664;-78
2024/02/29 00:33:43;;;;;;;10.48;5.60;;;;;;;;;;4891903;29;20048;-79
2024/02/29 00:36:09;;;;;;;10.18;5.95;;;;;;;;;;4905812;29;20037;-79
2024/02/29 00:38:35;;;;;;;8.93;6.45;;;;;;;;;;4905640;29;20037;-79
2024/02/29 00:41:01;;;;;;;9.70;5.75;;;;;;;;;;4899713;29;20032;-79
2024/02/29 00:43:27;;;;;;;11.85;5.80;;;;;;;;;;4908458;29;20059;-80
2024/02/29 00:45:53;;;;;;;6.20;5.03;;;;;;;;;;4897742;29;20112;-79
2024/02/29 00:48:19;;;;;;;13.95;6.15;;;;;;;;;;4894579;29;20033;-80
2024/02/29 00:50:45;;;;;;;5.43;3.95;;;;;;;;;;4899312;29;20416;-77
2024/02/29 00:53:12;;;;;;;8.70;5.07;;;;;;;;;;4878132;29;20532;-76
2024/02/29 00:55:38;;;;;;;7.50;5.97;;;;;;;;;;4900430;29;20040;-78
2024/02/29 00:58:04;;;;;;;11.88;6.30;;;;;;;;;;4882144;29;20043;-79
2024/02/29 01:00:29;;;;;;;4.70;3.90;;;;;;;;;;4902611;29;20521;-78
2024/02/29 01:02:55;;;;;;;8.68;5.15;;;;;;;;;;4894289;29;20037;-77
2024/02/29 01:05:21;;;;;;;8.82;6.55;;;;;;;;;;4900292;29;20206;-79
2024/02/29 01:07:47;;;;;;;10.50;4.00;;;;;;;;;;4893076;29;20044;-78
2024/02/29 01:10:13;;;;;;;6.53;5.68;;;;;;;;;;4900730;29;20158;-79
2024/02/29 01:12:41;;;;;;;7.55;5.68;;;;;;;;;;4913854;29;20047;-80
2024/02/29 01:15:11;;;;;;;7.32;4.60;;;;;;;;;;4895320;29;20064;-80
2024/02/29 01:17:37;;;;;;;8.32;5.47;;;;;;;;;;4912972;29;20033;-80
2024/02/29 01:20:06;;;;;;;12.50;5.55;;;;;;;;;;4905054;29;20060;-78
2024/02/29 01:22:32;;;;;;;10.40;5.28;;;;;;;;;;4883225;29;20072;-78
2024/02/29 01:24:58;;;;;;;9.68;5.25;;;;;;;;;;4897555;29;20044;-79
2024/02/29 01:27:23;;;;;;;12.57;5.72;;;;;;;;;;4898963;29;20041;-79
2024/02/29 01:29:49;;;;;;;7.72;5.80;;;;;;;;;;4908375;29;20092;-80
2024/02/29 01:32:15;;;;;;;7.90;5.63;;;;;;;;;;4909305;29;20037;-78
2024/02/29 01:34:41;;;;;;;8.32;5.03;;;;;;;;;;4906509;29;20108;-79
2024/02/29 01:37:07;;;;;;;9.68;4.72;;;;;;;;;;4911113;29;20412;-79
2024/02/29 01:39:33;;;;;;;9.63;5.90;;;;;;;;;;4874071;29;20105;-79
2024/02/29 01:41:59;;;;;;;10.13;5.93;;;;;;;;;;4905383;29;20080;-79
2024/02/29 01:44:27;;;;;;;7.05;5.22;;;;;;;;;;4894827;29;20056;-80
2024/02/29 01:46:53;;;;;;;9.77;4.93;;;;;;;;;;4888254;29;20033;-78
2024/02/29 01:49:19;;;;;;;5.07;4.13;;;;;;;;;;4895511;29;20036;-78
2024/02/29 01:51:45;;;;;;;7.25;5.32;;;;;;;;;;4886428;29;20071;-78
2024/02/29 01:54:10;;;;;;;9.93;5.15;;;;;;;;;;4893523;29;20057;-79
2024/02/29 01:56:36;;;;;;;8.82;6.18;;;;;;;;;;4867338;29;20528;-78
2024/02/29 01:59:02;;;;;;;6.60;5.65;;;;;;;;;;4896043;29;20037;-80
2024/02/29 02:01:28;;;;;;;6.15;5.53;;;;;;;;;;4894328;29;20548;-80
2024/02/29 02:03:54;;;;;;;9.23;4.60;;;;;;;;;;4884978;29;20129;-79
2024/02/29 02:06:20;;;;;;;4.10;3.72;;;;;;;;;;4892783;29;20047;-79
2024/02/29 02:08:46;;;;;;;8.18;5.15;;;;;;;;;;4894377;29;20043;-78
2024/02/29 02:11:12;;;;;;;5.60;4.75;;;;;;;;;;4895381;29;20048;-78
2024/02/29 02:13:38;;;;;;;4.68;4.28;;;;;;;;;;4887115;29;20044;-79
2024/02/29 02:16:05;;;;;;;6.57;5.93;;;;;;;;;;4890694;29;20060;-78
2024/02/29 02:18:30;;;;;;;6.22;4.35;;;;;;;;;;4893435;29;20040;-78
2024/02/29 02:20:56;;;;;;;6.00;4.78;;;;;;;;;;4898649;29;20044;-77
2024/02/29 02:23:22;;;;;;;7.25;4.50;;;;;;;;;;4892965;29;20086;-80
2024/02/29 02:25:48;;;;;;;9.18;4.05;;;;;;;;;;4900484;29;20041;-78
2024/02/29 02:28:14;;;;;;;7.63;5.00;;;;;;;;;;4899901;29;20032;-78
2024/02/29 02:30:40;;;;;;;6.25;4.90;;;;;;;;;;4901354;29;20073;-77
2024/02/29 02:33:06;;;;;;;7.43;4.28;;;;;;;;;;4906363;29;20071;-82
2024/02/29 02:35:34;;;;;;;6.22;5.03;;;;;;;;;;4898117;29;20029;-77
2024/02/29 02:38:03;;;;;;;5.53;5.03;;;;;;;;;;4886384;29;20141;-77
2024/02/29 02:40:29;;;;;;;8.48;6.00;;;;;;;;;;4887575;29;20033;-77
2024/02/29 02:42:54;;;;;;;7.57;5.00;;;;;;;;;;4894861;29;20389;-77
2024/02/29 02:45:20;;;;;;;8.25;4.18;;;;;;;;;;4902071;29;20057;-78
2024/02/29 02:47:46;;;;;;;11.70;6.85;;;;;;;;;;4896910;29;20124;-77
2024/02/29 02:50:13;;;;;;;10.88;5.75;;;;;;;;;;4896801;29;20051;-77
2024/02/29 02:52:39;;;;;;;5.28;4.53;;;;;;;;;;4889309;29;20075;-77
2024/02/29 02:55:05;;;;;;;9.40;5.70;;;;;;;;;;4891034;29;20506;-77
2024/02/29 02:57:31;;;;;;;10.40;5.25;;;;;;;;;;4893358;29;20112;-78
2024/02/29 02:59:57;;;;;;;6.85;5.57;;;;;;;;;;4897808;29;20060;-79
2024/02/29 03:02:23;;;;;;;5.07;4.35;;;;;;;;;;4895908;29;20037;-78
2024/02/29 03:04:48;;;;;;;6.68;5.30;;;;;;;;;;4898460;29;20048;-77
2024/02/29 03:07:15;;;;;;;8.60;5.38;;;;;;;;;;4896792;29;20139;-80
2024/02/29 03:09:41;;;;;;;5.13;4.60;;;;;;;;;;4883421;29;20045;-77
2024/02/29 03:12:07;;;;;;;4.97;4.13;;;;;;;;;;4872659;29;20041;-78
2024/02/29 03:14:33;;;;;;;7.50;5.30;;;;;;;;;;4876414;29;20041;-78
2024/02/29 03:16:59;;;;;;;6.25;4.65;;;;;;;;;;4880265;29;20131;-77
2024/02/29 03:19:25;;;;;;;5.68;4.22;;;;;;;;;;4886837;29;20029;-78
2024/02/29 03:21:50;;;;;;;7.97;4.57;;;;;;;;;;4879681;29;20040;-76
2024/02/29 03:24:17;;;;;;;7.00;4.25;;;;;;;;;;4878954;29;20058;-77
2024/02/29 03:26:43;;;;;;;3.05;2.83;;;;;;;;;;4878959;29;20044;-77
2024/02/29 03:29:11;;;;;;;8.45;4.40;;;;;;;;;;4879161;29;20522;-77
2024/02/29 03:31:37;;;;;;;9.25;4.10;;;;;;;;;;4873608;29;20178;-77
2024/02/29 03:34:03;;;;;;;9.63;5.80;;;;;;;;;;4875032;29;20127;-76
2024/02/29 03:36:29;;;;;;;7.32;4.90;;;;;;;;;;4875292;29;20057;-77
2024/02/29 03:38:55;;;;;;;7.32;4.68;;;;;;;;;;4876858;29;20039;-75
2024/02/29 03:41:21;;;;;;;10.40;6.00;;;;;;;;;;4870464;29;20064;-76
2024/02/29 03:43:46;;;;;;;6.20;5.53;;;;;;;;;;4877231;29;20133;-76
2024/02/29 03:46:12;;;;;;;9.82;5.07;;;;;;;;;;4887003;29;20062;-77
2024/02/29 03:48:39;;;;;;;6.93;5.20;;;;;;;;;;4890023;29;20045;-76
2024/02/29 03:51:05;;;;;;;4.78;4.38;;;;;;;;;;4887258;29;20025;-77
2024/02/29 03:53:31;;;;;;;9.30;6.28;;;;;;;;;;4891800;29;20140;-77
2024/02/29 03:55:57;;;;;;;7.28;5.28;;;;;;;;;;4888355;29;20122;-76
2024/02/29 03:58:23;;;;;;;9.00;5.63;;;;;;;;;;4886838;29;20131;-75
2024/02/29 04:00:49;;;;;;;6.90;4.82;;;;;;;;;;4888186;29;20052;-77
2024/02/29 04:03:14;;;;;;;5.03;4.43;;;;;;;;;;4888919;29;20048;-77
2024/02/29 04:05:40;;;;;;;7.53;4.63;;;;;;;;;;4890897;29;20084;-77
2024/02/29 04:08:11;;;;;;;5.47;4.05;;;;;;;;;;4888295;29;20101;-77
2024/02/29 04:10:46;;;;;;;4.97;4.47;;;;;;;;;;4888434;29;20119;-76
2024/02/29 04:13:12;;;;;;;8.80;5.43;;;;;;;;;;4889199;29;20308;-76
2024/02/29 04:15:37;;;;;;;4.03;3.67;;;;;;;;;;4888572;29;20059;-76
2024/02/29 04:18:06;;;;;;;5.88;3.95;;;;;;;;;;4885980;29;20040;-76
2024/02/29 04:20:32;;;;;;;7.15;4.88;;;;;;;;;;4877558;29;20032;-76
2024/02/29 04:22:58;;;;;;;4.63;3.58;;;;;;;;;;4889085;29;20462;-77
2024/02/29 04:25:23;;;;;;;5.47;3.47;;;;;;;;;;4889429;29;20092;-77
2024/02/29 04:27:52;;;;;;;3.72;3.40;;;;;;;;;;4890331;29;20033;-78
2024/02/29 04:30:18;;;;;;;6.40;4.70;;;;;;;;;;4885394;29;20048;-77
2024/02/29 04:32:44;;;;;;;9.50;3.92;;;;;;;;;;4888449;29;20075;-74
2024/02/29 04:35:10;;;;;;;5.28;3.97;;;;;;;;;;4888250;29;20076;-75
2024/02/29 04:37:37;;;;;;;14.48;5.78;;;;;;;;;;4896408;29;20045;-74
2024/02/29 04:40:21;;;;;;;5.40;4.80;;;;;;;;;;4894676;29;20040;-75
2024/02/29 04:42:47;;;;;;;6.40;3.80;;;;;;;;;;4890895;29;20063;-74
2024/02/29 04:45:14;;;;;;;4.80;4.28;;;;;;;;;;4886737;29;20482;-74
2024/02/29 04:47:40;;;;;;;7.45;5.97;;;;;;;;;;4886250;29;20032;-75
2024/02/29 04:50:06;;;;;;;5.82;3.80;;;;;;;;;;4889072;29;20025;-75
2024/02/29 04:55:16;;;;;;;4.80;3.65;;;;;;;;;;4884553;29;20479;-76
2024/02/29 04:57:42;;;;;;;5.30;4.80;;;;;;;;;;4885831;29;20036;-75
2024/02/29 05:00:10;;;;;;;3.80;3.42;;;;;;;;;;4888311;29;20078;-76
2024/02/29 05:02:36;;;;;;;6.88;5.07;;;;;;;;;;4885992;29;20079;-76
2024/02/29 05:05:03;;;;;;;4.38;3.55;;;;;;;;;;4885312;29;20521;-75
2024/02/29 05:07:29;;;;;;;4.55;4.15;;;;;;;;;;4884419;29;20112;-75
2024/02/29 05:09:55;;;;;;;3.90;3.60;;;;;;;;;;4883923;29;20161;-76
2024/02/29 05:12:22;;;;;;;4.35;3.95;;;;;;;;;;4889440;29;20139;-76
2024/02/29 05:14:48;;;;;;;5.50;4.32;;;;;;;;;;4889068;29;20127;-77
2024/02/29 05:17:15;;;;;;;5.43;4.45;;;;;;;;;;4883034;29;20132;-76
2024/02/29 05:19:41;;;;;;;4.75;4.30;;;;;;;;;;4883728;29;20532;-76
2024/02/29 05:22:06;;;;;;;5.28;4.53;;;;;;;;;;4886391;29;20525;-77
2024/02/29 05:24:32;;;;;;;5.20;4.40;;;;;;;;;;4885650;29;20147;-77
2024/02/29 05:26:58;;;;;;;4.35;3.95;;;;;;;;;;4887696;29;20304;-77
2024/02/29 05:29:24;;;;;;;8.15;4.80;;;;;;;;;;4895946;29;20071;-79
2024/02/29 05:31:51;;;;;;;9.32;4.68;;;;;;;;;;4896641;29;20513;-78
2024/02/29 05:34:17;;;;;;;6.25;4.05;;;;;;;;;;4901364;29;20057;-79
2024/02/29 05:36:43;;;;;;;7.22;4.32;;;;;;;;;;4898398;29;20485;-78
2024/02/29 05:39:11;;;;;;;4.13;3.72;;;;;;;;;;4891439;29;20414;-78
2024/02/29 05:41:36;;;;;;;4.10;3.47;;;;;;;;;;4891038;29;20044;-80
2024/02/29 05:44:02;;;;;;;5.75;3.53;;;;;;;;;;4888645;29;20048;-77
2024/02/29 05:46:28;;;;;;;3.35;3.10;;;;;;;;;;4900890;29;20079;-83
2024/02/29 05:48:54;;;;;;;5.85;4.22;;;;;;;;;;4911870;29;20084;-81
2024/02/29 05:51:19;;;;;;;12.57;4.40;;;;;;;;;;4904631;29;20075;-76
2024/02/29 05:53:45;;;;;;;6.43;3.83;;;;;;;;;;4889090;29;20041;-79
2024/02/29 05:56:13;;;;;;;7.95;3.63;;;;;;;;;;4889083;29;20116;-79
2024/02/29 05:58:39;;;;;;;5.70;4.53;;;;;;;;;;4898816;29;20097;-80
2024/02/29 06:01:06;;;;;;;9.43;6.25;;;;;;;;;;4901169;29;20041;-80
2024/02/29 06:03:32;;;;;;;5.15;4.13;;;;;;;;;;4903046;29;20048;-81
2024/02/29 06:06:00;;;;;;;4.88;3.95;;;;;;;;;;4898102;29;20047;-81
2024/02/29 06:08:26;;;;;;;6.03;3.50;;;;;;;;;;4905434;29;20029;-81
2024/02/29 06:10:52;;;;;;;9.70;4.60;;;;;;;;;;4893500;29;20430;-79
2024/02/29 06:13:18;;;;;;;4.55;4.15;;;;;;;;;;4892741;29;20140;-77
2024/02/29 06:15:43;;;;;;;8.38;4.00;;;;;;;;;;4884542;29;20028;-75
2024/02/29 06:18:13;;;;;;;9.45;4.60;;;;;;;;;;4885367;29;20076;-78
2024/02/29 06:20:39;;;;;;;8.57;4.82;;;;;;;;;;4884187;29;20601;-76
2024/02/29 06:23:05;;;;;;;4.25;3.95;;;;;;;;;;4884842;29;20105;-75
2024/02/29 06:25:31;;;;;;;9.82;6.32;;;;;;;;;;4870190;29;20085;-76
2024/02/29 06:27:57;;;;;;;5.85;4.55;;;;;;;;;;4884765;29;20117;-77
2024/02/29 06:30:31;;;;;;;10.07;4.93;;;;;;;;;;4868120;29;20033;-77
2024/02/29 06:32:58;;;;;;;7.10;5.00;;;;;;;;;;4887557;29;20577;-77
2024/02/29 06:35:24;;;;;;;18.38;5.65;;;;;;;;;;4886624;29;20025;-80
2024/02/29 06:37:49;;;;;;;4.70;4.28;;;;;;;;;;4896023;29;20052;-80
2024/02/29 06:40:15;;;;;;;7.28;4.15;;;;;;;;;;4901793;29;20413;-81
2024/02/29 06:42:41;;;;;;;5.65;5.25;;;;;;;;;;4890635;29;20044;-77
2024/02/29 06:45:07;;;;;;;4.35;3.67;;;;;;;;;;4885412;29;20051;-79
2024/02/29 06:47:33;;;;;;;3.63;3.33;;;;;;;;;;4897716;29;20032;-77
2024/02/29 06:50:00;;;;;;;9.32;4.40;;;;;;;;;;4887915;29;20119;-79
2024/02/29 06:52:26;;;;;;;7.03;4.78;;;;;;;;;;4889547;29;20033;-77
2024/02/29 06:54:52;;;;;;;4.65;4.15;;;;;;;;;;4889114;29;20049;-79
2024/02/29 06:57:18;;;;;;;5.80;3.88;;;;;;;;;;4891303;29;20036;-78
2024/02/29 06:59:45;;;;;;;5.35;4.85;;;;;;;;;;4887752;29;20068;-78
2024/02/29 07:02:11;;;;;;;5.90;5.38;;;;;;;;;;4890735;29;20107;-77
2024/02/29 07:04:38;;;;;;;12.40;5.80;;;;;;;;;;4890277;29;20057;-75
2024/02/29 07:07:04;;;;;;;6.38;4.55;;;;;;;;;;4885379;29;20052;-75
2024/02/29 07:09:30;;;;;;;8.68;5.40;;;;;;;;;;4871208;29;20037;-74
2024/02/29 07:11:57;;;;;;;6.95;5.03;;;;;;;;;;4884451;29;20104;-77
2024/02/29 07:14:23;;;;;;;11.00;5.07;;;;;;;;;;4888687;29;20055;-75
2024/02/29 07:16:50;;;;;;;5.75;5.13;;;;;;;;;;4884051;29;20120;-76
2024/02/29 07:19:16;;;;;;;12.27;5.95;;;;;;;;;;4889481;29;20033;-73
2024/02/29 07:21:42;;;;;;;7.78;5.63;;;;;;;;;;4888733;29;20051;-75
2024/02/29 07:24:08;;;;;;;6.30;5.07;;;;;;;;;;4883939;29;20052;-74
2024/02/29 07:26:43;;;;;;;5.22;4.72;;;;;;;;;;4883817;29;20409;-74
2024/02/29 07:29:09;;;;;;;11.43;5.00;;;;;;;;;;4885413;29;20417;-74
2024/02/29 07:31:36;;;;;;;5.35;4.85;;;;;;;;;;4889020;29;20032;-74
2024/02/29 07:34:02;;;;;;;5.57;4.93;;;;;;;;;;4886909;29;20057;-74
2024/02/29 07:36:28;;;;;;;6.70;6.00;;;;;;;;;;4890256;29;20047;-75
2024/02/29 07:38:54;;;;;;;6.15;5.53;;;;;;;;;;4887201;29;20037;-74
2024/02/29 07:41:20;;;;;;;8.80;6.18;;;;;;;;;;4892573;29;20044;-75
2024/02/29 07:43:47;;;;;;;9.52;6.70;;;;;;;;;;4888765;29;20048;-75
2024/02/29 07:46:13;;;;;;;9.20;7.07;;;;;;;;;;4884732;29;20033;-75
2024/02/29 07:48:38;;;;;;;8.73;5.70;;;;;;;;;;4902462;29;20060;-75
2024/02/29 07:51:04;;;;;;;10.48;5.35;;;;;;;;;;4905848;29;20029;-75
2024/02/29 07:53:30;;;;;;;5.85;5.05;;;;;;;;;;4897318;29;20044;-74
2024/02/29 07:55:56;;;;;;;11.80;6.40;;;;;;;;;;4888877;29;20064;-75
2024/02/29 07:58:22;;;;;;;7.78;6.10;;;;;;;;;;4888828;29;20113;-75
2024/02/29 08:00:48;;;;;;;7.68;5.25;;;;;;;;;;4888770;29;20108;-76
2024/02/29 08:03:14;;;;;;;6.18;5.20;;;;;;;;;;4886947;29;20057;-75
2024/02/29 08:05:40;;;;;;;10.50;5.50;;;;;;;;;;4887723;29;20031;-75
2024/02/29 08:08:07;;;;;;;10.32;5.70;;;;;;;;;;4885893;29;20040;-75
2024/02/29 08:10:33;;;;;;;6.22;4.85;;;;;;;;;;4888707;29;20655;-75
2024/02/29 08:12:59;;;;;;;14.25;6.03;;;;;;;;;;4887911;29;20135;-75
2024/02/29 08:15:25;;;;;;;12.95;4.95;;;;;;;;;;4885401;29;20085;-75
2024/02/29 08:17:51;;;;;;;10.70;5.82;;;;;;;;;;4885455;29;20098;-75
2024/02/29 08:20:19;;;;;;;6.65;5.30;;;;;;;;;;4884386;29;20068;-76
2024/02/29 08:22:46;;;;;;;12.95;5.97;;;;;;;;;;4887771;29;20056;-74
2024/02/29 08:25:12;;;;;;;10.65;5.25;;;;;;;;;;4889789;29;20139;-75
2024/02/29 08:27:38;;;;;;;8.60;5.28;;;;;;;;;;4885568;29;20510;-75
2024/02/29 08:30:05;;;;;;;5.22;4.75;;;;;;;;;;4885208;29;20040;-75
2024/02/29 08:32:31;;;;;;;9.65;4.63;;;;;;;;;;4869523;29;20040;-76
2024/02/29 08:34:57;;;;;;;9.25;5.10;;;;;;;;;;4887891;29;20467;-75
2024/02/29 08:37:22;;;;;;;10.35;6.00;;;;;;;;;;4891170;29;20032;-75
2024/02/29 08:39:48;;;;;;;8.68;5.55;;;;;;;;;;4887311;29;20421;-76
2024/02/29 08:42:14;;;;;;;5.93;5.32;;;;;;;;;;4889181;29;20413;-75
2024/02/29 08:44:43;;;;;;;9.63;5.63;;;;;;;;;;4885818;29;20143;-76
2024/02/29 08:47:09;;;;;;;5.20;4.30;;;;;;;;;;4885867;29;20045;-75
2024/02/29 08:49:34;;;;;;;11.95;6.20;;;;;;;;;;4885742;29;20029;-75
2024/02/29 08:52:00;;;;;;;4.63;4.22;;;;;;;;;;4887701;29;20047;-76
2024/02/29 08:54:26;;;;;;;6.50;5.43;;;;;;;;;;4884293;29;20136;-75
2024/02/29 08:56:52;;;;;;;13.23;5.72;;;;;;;;;;4884697;29;20131;-75
2024/02/29 08:59:18;;;;;;;11.18;5.78;;;;;;;;;;4884479;29;20499;-76
2024/02/29 09:01:44;;;;;;;8.80;5.57;;;;;;;;;;4885784;29;20025;-76
2024/02/29 09:04:10;;;;;;;8.18;5.38;;;;;;;;;;4873365;29;20060;-75
2024/02/29 09:06:35;;;;;;;12.90;6.53;;;;;;;;;;4866951;29;20128;-75
2024/02/29 09:09:01;;;;;;;10.38;6.47;;;;;;;;;;4883401;29;20056;-75
2024/02/29 09:11:29;;;;;;;7.38;4.90;;;;;;;;;;4884167;29;20564;-76
2024/02/29 09:13:56;;;;;;;9.13;5.45;;;;;;;;;;4885695;29;20116;-75
2024/02/29 09:16:22;;;;;;;6.18;5.57;;;;;;;;;;4870248;29;20071;-75
2024/02/29 09:18:48;;;;;;;9.57;5.10;;;;;;;;;;4885097;29;20526;-75
2024/02/29 09:21:15;;;;;;;14.98;5.75;;;;;;;;;;4884887;29;20047;-75
2024/02/29 09:23:41;;;;;;;15.85;6.03;;;;;;;;;;4885849;29;20052;-75
2024/02/29 09:26:06;;;;;;;9.93;5.57;;;;;;;;;;4883462;29;20762;-75
2024/02/29 09:28:34;;;;;;;8.32;5.55;;;;;;;;;;4857792;29;20092;-74
2024/02/29 09:31:00;;;;;;;9.02;6.20;;;;;;;;;;4890694;29;20064;-76
2024/02/29 09:33:26;;;;;;;11.35;6.13;;;;;;;;;;4866542;29;20139;-75
2024/02/29 09:35:57;;;;;;;8.25;6.03;;;;;;;;;;4886471;29;20852;-76
2024/02/29 09:38:24;;;;;;;6.13;5.35;;;;;;;;;;4893470;29;20421;-75
2024/02/29 09:40:50;;;;;;;7.65;5.60;;;;;;;;;;4893498;29;20032;-76
2024/02/29 09:43:16;;;;;;;7.95;5.82;;;;;;;;;;4888468;29;20056;-76
2024/02/29 09:45:42;;;;;;;8.25;5.57;;;;;;;;;;4882394;29;20033;-75
2024/02/29 09:48:09;;;;;;;8.52;6.20;;;;;;;;;;4870665;29;20045;-76
2024/02/29 09:50:35;;;;;;;6.22;5.63;;;;;;;;;;4882753;29;20047;-75
2024/02/29 09:53:01;;;;;;;7.50;5.40;;;;;;;;;;4884002;29;20044;-75
2024/02/29 09:55:27;;;;;;;6.97;4.80;;;;;;;;;;4888644;29;20036;-76
2024/02/29 09:57:54;;;;;;;7.60;5.30;;;;;;;;;;4885682;29;20860;-76
2024/02/29 10:00:20;;;;;;;7.60;5.07;;;;;;;;;;4882183;29;20140;-76
2024/02/29 10:02:48;;;;;;;16.33;6.13;;;;;;;;;;4883117;29;20406;-75
2024/02/29 10:05:14;;;;;;;7.25;5.85;;;;;;;;;;4881024;29;20527;-76
2024/02/29 10:07:47;;;;;;;8.55;6.78;;;;;;;;;;4884579;29;20052;-75
2024/02/29 10:10:14;;;;;;;8.18;6.00;;;;;;;;;;4884652;29;20521;-75
2024/02/29 10:12:40;;;;;;;11.05;5.72;;;;;;;;;;4880975;29;20032;-76
2024/02/29 10:15:09;;;;;;;7.18;5.53;;;;;;;;;;4878554;29;20048;-76
2024/02/29 10:17:36;;;;;;;9.50;5.78;;;;;;;;;;4882370;29;20104;-76
2024/02/29 10:20:04;;;;;;;6.70;5.28;;;;;;;;;;4883093;29;20042;-75
2024/02/29 10:22:30;;;;;;;7.07;5.85;;;;;;;;;;4883261;29;20104;-76
2024/02/29 10:24:56;;;;;;;7.32;6.05;;;;;;;;;;4883842;29;20608;-76
2024/02/29 10:27:22;;;;;;;16.58;8.68;;;;;;;;;;4879511;29;20068;-75
2024/02/29 10:29:49;;;;;;;11.10;6.72;;;;;;;;;;4883841;29;20463;-76
2024/02/29 10:32:15;;;;;;;12.50;6.30;;;;;;;;;;4885008;29;20096;-76
2024/02/29 10:34:41;;;;;;;7.10;6.40;;;;;;;;;;4882757;29;20040;-77
2024/02/29 10:37:07;;;;;;;9.63;6.68;;;;;;;;;;4887218;29;20090;-75
2024/02/29 10:39:34;;;;;;;8.98;6.68;;;;;;;;;;4887895;29;20491;-76
2024/02/29 10:42:00;;;;;;;10.05;6.57;;;;;;;;;;4883994;29;20060;-76
2024/02/29 10:44:27;;;;;;;11.73;6.93;;;;;;;;;;4885104;29;20080;-75
2024/02/29 10:46:55;;;;;;;15.85;6.40;;;;;;;;;;4886446;29;21023;-76
2024/02/29 10:49:29;;;;;;;7.43;5.47;;;;;;;;;;4887578;29;20080;-76
2024/02/29 10:52:09;;;;;;;13.77;6.28;;;;;;;;;;4884036;29;20052;-75
2024/02/29 10:54:55;;;;;;;6.00;4.88;;;;;;;;;;4884990;29;20056;-76
2024/02/29 10:57:22;;;;;;;11.40;6.78;;;;;;;;;;4882091;29;20064;-76
2024/02/29 10:59:58;;;;;;;7.70;6.63;;;;;;;;;;4885054;29;20055;-75
2024/02/29 11:02:24;;;;;;;8.88;6.20;;;;;;;;;;4885409;29;20498;-74
2024/02/29 11:04:50;;;;;;;7.07;6.35;;;;;;;;;;4890187;29;20054;-75
2024/02/29 11:07:15;;;;;;;11.55;5.97;;;;;;;;;;4890508;29;20474;-74
2024/02/29 11:09:41;;;;;;;11.13;7.13;;;;;;;;;;4890500;29;20036;-76
2024/02/29 11:12:10;;;;;;;10.40;6.65;;;;;;;;;;4890357;29;20063;-75
2024/02/29 11:14:39;;;;;;;7.80;6.32;;;;;;;;;;4887103;29;20067;-75
2024/02/29 11:17:05;;;;;;;7.18;6.05;;;;;;;;;;4882935;29;20039;-76
2024/02/29 11:19:31;;;;;;;7.10;6.15;;;;;;;;;;4885178;29;20350;-75
2024/02/29 11:22:10;;;;;;;6.80;6.07;;;;;;;;;;4886216;29;20045;-75
2024/02/29 11:24:36;;;;;;;9.52;5.93;;;;;;;;;;4887435;29;20401;-76
2024/02/29 11:27:06;;;;;;;7.50;5.88;;;;;;;;;;4888266;29;20427;-76
2024/02/29 11:29:32;;;;;;;8.80;5.93;;;;;;;;;;4886671;29;20037;-76
2024/02/29 11:31:58;;;;;;;11.38;7.18;;;;;;;;;;4887119;29;20044;-76
2024/02/29 11:34:24;;;;;;;15.68;7.43;;;;;;;;;;4886141;29;20044;-75
2024/02/29 11:36:50;;;;;;;12.77;7.38;;;;;;;;;;4885249;29;20291;-76
2024/02/29 11:39:20;;;;;;;24.13;9.60;;;;;;;;;;4887811;29;20046;-76
2024/02/29 11:41:50;;;;;;;12.32;7.70;;;;;;;;;;4887641;29;20097;-76
2024/02/29 11:44:16;;;;;;;7.68;6.72;;;;;;;;;;4885002;29;20399;-75
2024/02/29 11:46:48;;;;;;;11.55;5.72;;;;;;;;;;4875047;29;20040;-76
2024/02/29 11:49:15;;;;;;;13.52;6.88;;;;;;;;;;4880660;29;20032;-75
2024/02/29 11:51:41;;;;;;;6.63;5.93;;;;;;;;;;4884656;29;20042;-76
2024/02/29 11:54:06;;;;;;;17.45;7.07;;;;;;;;;;4884442;29;20049;-75
2024/02/29 11:56:32;;;;;;;7.22;5.95;;;;;;;;;;4871323;29;20101;-76
2024/02/29 11:59:02;;;;;;;12.05;7.13;;;;;;;;;;4885495;29;20100;-75
2024/02/29 12:04:12;;;;;;;10.77;6.40;;;;;;;;;;4887082;29;20085;-75
2024/02/29 12:06:43;;;;;;;11.43;6.82;;;;;;;;;;4884847;29;20083;-75
2024/02/29 12:09:12;;;;;;;8.55;7.70;;;;;;;;;;4888919;29;20123;-76
2024/02/29 12:11:38;;;;;;;13.30;6.15;;;;;;;;;;4886119;29;20044;-76
2024/02/29 12:14:06;;;;;;;14.07;6.57;;;;;;;;;;4883279;29;20068;-76
2024/02/29 12:16:36;;;;;;;8.35;5.80;;;;;;;;;;4885758;29;20043;-75
2024/02/29 12:19:02;;;;;;;10.00;6.78;;;;;;;;;;4888571;29;20040;-79
2024/02/29 12:21:28;;;;;;;11.50;6.65;;;;;;;;;;4884685;29;20036;-75
2024/02/29 12:23:57;;;;;;;11.65;6.40;;;;;;;;;;4885656;29;20049;-75
2024/02/29 12:26:22;;;;;;;14.38;6.68;;;;;;;;;;4887288;29;20056;-75
2024/02/29 12:28:48;;;;;;;19.98;7.38;;;;;;;;;;4888196;29;20037;-75
2024/02/29 12:31:14;;;;;;;8.25;5.07;;;;;;;;;;4887185;29;20537;-75
2024/02/29 12:33:58;;;;;;;8.77;6.15;;;;;;;;;;4889880;29;20127;-75
2024/02/29 12:36:26;;;;;;;15.07;7.60;;;;;;;;;;4894325;29;20032;-75
2024/02/29 12:38:52;;;;;;;12.77;6.15;;;;;;;;;;4894952;29;20041;-74
2024/02/29 12:41:18;;;;;;;10.50;7.22;;;;;;;;;;4899163;29;20032;-76
2024/02/29 12:43:50;;;;;;;7.75;5.57;;;;;;;;;;4897378;29;20056;-75
2024/02/29 12:46:16;;;;;;;7.50;5.63;;;;;;;;;;4901214;29;20131;-76
2024/02/29 12:48:42;;;;;;;10.43;5.80;;;;;;;;;;4892490;29;20072;-75
2024/02/29 12:51:08;;;;;;;11.23;5.60;;;;;;;;;;4909048;29;20477;-74
2024/02/29 12:53:34;;;;;;;12.05;6.22;;;;;;;;;;4891001;29;20064;-75
2024/02/29 12:56:00;;;;;;;8.45;5.22;;;;;;;;;;4891317;29;20032;-75
2024/02/29 12:58:26;;;;;;;15.38;6.10;;;;;;;;;;4890484;29;20130;-76
2024/02/29 13:00:51;;;;;;;13.13;6.28;;;;;;;;;;4891748;29;20056;-75
2024/02/29 13:03:17;;;;;;;7.80;5.65;;;;;;;;;;4889394;29;20048;-74
2024/02/29 13:05:44;;;;;;;10.70;5.80;;;;;;;;;;4889606;29;20771;-75
2024/02/29 13:08:11;;;;;;;7.85;5.53;;;;;;;;;;4890667;29;20520;-76
2024/02/29 13:10:37;;;;;;;12.43;5.07;;;;;;;;;;4886552;29;20119;-75
2024/02/29 13:13:07;;;;;;;12.35;6.78;;;;;;;;;;4892002;29;20094;-75
2024/02/29 13:15:33;;;;;;;9.77;6.30;;;;;;;;;;4890488;29;20107;-74
2024/02/29 13:17:59;;;;;;;14.30;5.90;;;;;;;;;;4885072;29;20039;-74
2024/02/29 13:20:25;;;;;;;10.55;6.20;;;;;;;;;;4888997;29;20032;-74
2024/02/29 13:22:51;;;;;;;9.82;6.55;;;;;;;;;;4887646;29;20041;-74
2024/02/29 13:25:16;;;;;;;7.68;5.97;;;;;;;;;;4887233;29;20405;-75
2024/02/29 13:27:44;;;;;;;7.88;6.40;;;;;;;;;;4890271;29;20047;-74
2024/02/29 13:30:10;;;;;;;10.60;6.30;;;;;;;;;;4890935;29;20041;-75
2024/02/29 13:32:35;;;;;;;8.73;5.60;;;;;;;;;;4887966;29;20096;-75
2024/02/29 13:35:01;;;;;;;7.97;5.97;;;;;;;;;;4886777;29;20045;-75
2024/02/29 13:37:54;;;;;;;12.63;6.78;;;;;;;;;;4891298;29;20055;-75
2024/02/29 13:40:20;;;;;;;13.43;6.65;;;;;;;;;;4886045;29;20123;-75
2024/02/29 13:42:50;;;;;;;10.13;6.28;;;;;;;;;;4884580;29;20135;-75
2024/02/29 13:45:16;;;;;;;7.28;6.55;;;;;;;;;;4873817;29;20116;-75
2024/02/29 13:47:48;;;;;;;8.52;6.32;;;;;;;;;;4890547;29;20036;-76
2024/02/29 13:50:15;;;;;;;12.02;7.05;;;;;;;;;;4887760;29;20075;-77
2024/02/29 13:52:43;;;;;;;6.15;4.80;;;;;;;;;;4889549;29;20458;-75
2024/02/29 13:55:10;;;;;;;11.27;6.47;;;;;;;;;;4887771;29;20049;-75
2024/02/29 13:57:36;;;;;;;12.68;6.45;;;;;;;;;;4874340;29;20036;-74
2024/02/29 14:00:05;;;;;;;11.95;5.97;;;;;;;;;;4886268;29;20060;-74
2024/02/29 14:02:39;;;;;;;13.00;6.57;;;;;;;;;;4886361;29;20032;-75
2024/02/29 14:05:05;;;;;;;10.15;6.43;;;;;;;;;;4886779;29;20411;-75
2024/02/29 14:07:32;;;;;;;13.23;6.65;;;;;;;;;;4890903;29;20064;-75
2024/02/29 14:09:59;;;;;;;13.07;6.28;;;;;;;;;;4871471;29;20462;-75
2024/02/29 14:12:27;;;;;;;18.48;6.53;;;;;;;;;;4888867;29;20116;-74
2024/02/29 14:14:53;;;;;;;9.85;6.13;;;;;;;;;;4885631;29;20112;-74
2024/02/29 14:17:19;;;;;;;12.43;6.45;;;;;;;;;;4890820;29;20036;-74
2024/02/29 14:19:45;;;;;;;16.42;6.70;;;;;;;;;;4889772;29;20044;-75
2024/02/29 14:22:10;;;;;;;20.65;7.32;;;;;;;;;;4871458;29;20044;-75
2024/02/29 14:24:36;;;;;;;11.57;6.70;;;;;;;;;;4886838;29;20059;-75
2024/02/29 14:27:02;;;;;;;9.18;6.25;;;;;;;;;;4890030;29;20050;-74
2024/02/29 14:29:28;;;;;;;12.45;7.32;;;;;;;;;;4890915;29;20029;-75
2024/02/29 14:31:54;;;;;;;6.78;6.13;;;;;;;;;;4890583;29;20538;-75
2024/02/29 14:34:21;;;;;;;17.00;6.65;;;;;;;;;;4890360;29;20117;-74
2024/02/29 14:36:46;;;;;;;11.05;5.70;;;;;;;;;;4890363;29;20032;-74
2024/02/29 14:39:13;;;;;;;9.95;7.28;;;;;;;;;;4889209;29;20097;-74
2024/02/29 14:41:40;;;;;;;13.25;6.97;;;;;;;;;;4888137;29;21151;-75